sensor_id;sensor_type;location;lat;lon;timestamp;temperature;humidity
13211;DHT22;6670;51.53087800;7.23266500;2023-06-01T00:00:04;18.40;99.90
13211;DHT22;6670;51.53087800;7.23266500;2023-06-01T00:02:52;18.60;99.90
13211;DHT22;6670;51.53087800;7.23266500;2023-06-01T00:05:19;18.40;99.90
13211;DHT22;6670;51.53087800;7.23266500;2023-06-01T00:07:47;18.20;99.90
13211;DHT22;6670;51.53087800;7.23266500;2023-06-01T00:10:14;18.20;99.90
13211;DHT22;6670;51.53087800;7.23266500;2023-06-01T00:12:42;18.10;99.90
13211;DHT22;6670;51.53087800;7.23266500;2023-06-01T00:15:10;18.20;99.90
13211;DHT22;6670;51.53087800;7.23266500;2023-06-01T00:17:37;18.10;99.90
13211;DHT22;6670;51.53087800;7.23266500;2023-06-01T00:20:07;17.80;99.90
13211;DHT22;6670;51.53087800;7.23266500;2023-06-01T00:22:34;17.80;99.90
13211;DHT22;6670;51.53087800;7.23266500;2023-06-01T00:25:05;17.80;99.90
13211;DHT22;6670;51.53087800;7.23266500;2023-06-01T00:27:34;17.80;99.90
13211;DHT22;6670;51.53087800;7.23266500;2023-06-01T00:30:02;17.70;99.90
13211;DHT22;6670;51.53087800;7.23266500;2023-06-01T00:32:29;17.70;99.90
13211;DHT22;6670;51.53087800;7.23266500;2023-06-01T00:34:57;17.50;99.90
13211;DHT22;6670;51.53087800;7.23266500;2023-06-01T00:37:28;17.50;99.90
13211;DHT22;6670;51.53087800;7.23266500;2023-06-01T00:39:56;17.50;99.90
13211;DHT22;6670;51.53087800;7.23266500;2023-06-01T00:42:24;17.40;99.90
13211;DHT22;6670;51.53087800;7.23266500;2023-06-01T00:44:51;17.50;99.90
13211;DHT22;6670;51.53087800;7.23266500;2023-06-01T00:47:19;17.30;99.90
13211;DHT22;6670;51.53087800;7.23266500;2023-06-01T00:49:48;17.40;99.90
13211;DHT22;6670;51.53087800;7.23266500;2023-06-01T00:52:15;17.40;99.90
13211;DHT22;6670;51.53087800;7.23266500;2023-06-01T00:54:44;17.40;99.90
13211;DHT22;6670;51.53087800;7.23266500;2023-06-01T00:57:12;17.30;99.90
13211;DHT22;6670;51.53087800;7.23266500;2023-06-01T00:59:39;17.40;99.90
13211;DHT22;6670;51.53087800;7.23266500;2023-06-01T01:02:08;17.30;99.90
13211;DHT22;6670;51.53087800;7.23266500;2023-06-01T01:04:36;17.20;99.90
13211;DHT22;6670;51.53087800;7.23266500;2023-06-01T01:07:12;17.10;99.90
13211;DHT22;6670;51.53087800;7.23266500;2023-06-01T01:09:56;17.10;99.90
13211;DHT22;6670;51.53087800;7.23266500;2023-06-01T01:12:28;16.90;99.90
13211;DHT22;6670;51.53087800;7.23266500;2023-06-01T01:15:03;16.90;99.90
13211;DHT22;6670;51.53087800;7.23266500;2023-06-01T01:17:37;16.80;99.90
13211;DHT22;6670;51.53087800;7.23266500;2023-06-01T01:20:12;16.90;99.90
13211;DHT22;6670;51.53087800;7.23266500;2023-06-01T01:22:53;17.00;99.90
13211;DHT22;6670;51.53087800;7.23266500;2023-06-01T01:26:08;16.90;99.90
13211;DHT22;6670;51.53087800;7.23266500;2023-06-01T01:28:41;16.90;99.90
13211;DHT22;6670;51.53087800;7.23266500;2023-06-01T01:31:11;17.00;99.90
13211;DHT22;6670;51.53087800;7.23266500;2023-06-01T01:33:40;17.10;99.90
13211;DHT22;6670;51.53087800;7.23266500;2023-06-01T01:36:09;17.00;99.90
13211;DHT22;6670;51.53087800;7.23266500;2023-06-01T01:38:37;16.90;99.90
13211;DHT22;6670;51.53087800;7.23266500;2023-06-01T01:41:05;16.80;99.90
13211;DHT22;6670;51.53087800;7.23266500;2023-06-01T01:43:32;16.80;99.90
13211;DHT22;6670;51.53087800;7.23266500;2023-06-01T01:46:08;16.70;99.90
13211;DHT22;6670;51.53087800;7.23266500;2023-06-01T01:48:42;16.60;99.90
13211;DHT22;6670;51.53087800;7.23266500;2023-06-01T01:51:26;16.50;99.90
13211;DHT22;6670;51.53087800;7.23266500;2023-06-01T01:53:55;16.40;99.90
13211;DHT22;6670;51.53087800;7.23266500;2023-06-01T01:56:23;16.10;99.90
13211;DHT22;6670;51.53087800;7.23266500;2023-06-01T01:58:53;16.10;99.90
13211;DHT22;6670;51.53087800;7.23266500;2023-06-01T02:01:22;16.20;99.90
13211;DHT22;6670;51.53087800;7.23266500;2023-06-01T02:03:58;16.00;99.90
13211;DHT22;6670;51.53087800;7.23266500;2023-06-01T02:06:26;16.00;99.90
13211;DHT22;6670;51.53087800;7.23266500;2023-06-01T02:08:53;15.70;99.90
13211;DHT22;6670;51.53087800;7.23266500;2023-06-01T02:11:22;15.80;99.90
13211;DHT22;6670;51.53087800;7.23266500;2023-06-01T02:13:51;15.60;99.90
13211;DHT22;6670;51.53087800;7.23266500;2023-06-01T02:16:19;15.20;99.90
13211;DHT22;6670;51.53087800;7.23266500;2023-06-01T02:18:49;15.40;99.90
13211;DHT22;6670;51.53087800;7.23266500;2023-06-01T02:21:26;15.60;99.90
13211;DHT22;6670;51.53087800;7.23266500;2023-06-01T02:23:59;15.70;99.90
13211;DHT22;6670;51.53087800;7.23266500;2023-06-01T02:26:31;15.60;99.90
13211;DHT22;6670;51.53087800;7.23266500;2023-06-01T02:28:58;15.30;99.90
13211;DHT22;6670;51.53087800;7.23266500;2023-06-01T02:31:28;15.30;99.90
13211;DHT22;6670;51.53087800;7.23266500;2023-06-01T02:33:57;15.30;99.90
13211;DHT22;6670;51.53087800;7.23266500;2023-06-01T02:36:25;15.20;99.90
13211;DHT22;6670;51.53087800;7.23266500;2023-06-01T02:38:53;15.10;99.90
13211;DHT22;6670;51.53087800;7.23266500;2023-06-01T02:41:20;15.10;99.90
13211;DHT22;6670;51.53087800;7.23266500;2023-06-01T02:43:48;14.80;99.90
13211;DHT22;6670;51.53087800;7.23266500;2023-06-01T02:46:17;14.90;99.90
13211;DHT22;6670;51.53087800;7.23266500;2023-06-01T02:48:45;15.00;99.90
13211;DHT22;6670;51.53087800;7.23266500;2023-06-01T02:51:14;14.90;99.90
13211;DHT22;6670;51.53087800;7.23266500;2023-06-01T02:53:44;14.90;99.90
13211;DHT22;6670;51.53087800;7.23266500;2023-06-01T02:56:13;14.70;99.90
13211;DHT22;6670;51.53087800;7.23266500;2023-06-01T02:58:52;14.50;99.90
13211;DHT22;6670;51.53087800;7.23266500;2023-06-01T03:01:25;14.70;99.90
13211;DHT22;6670;51.53087800;7.23266500;2023-06-01T03:03:52;14.60;99.90
13211;DHT22;6670;51.53087800;7.23266500;2023-06-01T03:06:22;14.50;99.90
13211;DHT22;6670;51.53087800;7.23266500;2023-06-01T03:09:07;14.30;99.90
13211;DHT22;6670;51.53087800;7.23266500;2023-06-01T03:11:52;14.30;99.90
13211;DHT22;6670;51.53087800;7.23266500;2023-06-01T03:14:20;14.40;99.90
13211;DHT22;6670;51.53087800;7.23266500;2023-06-01T03:16:48;14.50;99.90
13211;DHT22;6670;51.53087800;7.23266500;2023-06-01T03:19:20;14.60;99.90
13211;DHT22;6670;51.53087800;7.23266500;2023-06-01T03:21:52;14.80;99.90
13211;DHT22;6670;51.53087800;7.23266500;2023-06-01T03:24:22;14.60;99.90
13211;DHT22;6670;51.53087800;7.23266500;2023-06-01T03:26:54;14.40;99.90
13211;DHT22;6670;51.53087800;7.23266500;2023-06-01T03:29:23;14.30;99.90
13211;DHT22;6670;51.53087800;7.23266500;2023-06-01T03:31:51;14.30;99.90
13211;DHT22;6670;51.53087800;7.23266500;2023-06-01T03:34:21;14.30;99.90
13211;DHT22;6670;51.53087800;7.23266500;2023-06-01T03:36:48;14.10;99.90
13211;DHT22;6670;51.53087800;7.23266500;2023-06-01T03:39:18;14.10;99.90
13211;DHT22;6670;51.53087800;7.23266500;2023-06-01T03:41:46;14.10;99.90
13211;DHT22;6670;51.53087800;7.23266500;2023-06-01T03:44:14;14.10;99.90
13211;DHT22;6670;51.53087800;7.23266500;2023-06-01T03:46:42;14.10;99.90
13211;DHT22;6670;51.53087800;7.23266500;2023-06-01T03:49:09;14.10;99.90
13211;DHT22;6670;51.53087800;7.23266500;2023-06-01T03:51:37;13.90;99.90
13211;DHT22;6670;51.53087800;7.23266500;2023-06-01T03:54:05;14.10;99.90
13211;DHT22;6670;51.53087800;7.23266500;2023-06-01T03:56:34;14.10;99.90
13211;DHT22;6670;51.53087800;7.23266500;2023-06-01T03:59:02;14.20;99.90
13211;DHT22;6670;51.53087800;7.23266500;2023-06-01T04:01:29;14.20;99.90
13211;DHT22;6670;51.53087800;7.23266500;2023-06-01T04:03:58;14.00;99.90
13211;DHT22;6670;51.53087800;7.23266500;2023-06-01T04:06:26;14.20;99.90
13211;DHT22;6670;51.53087800;7.23266500;2023-06-01T04:08:56;14.10;99.90
13211;DHT22;6670;51.53087800;7.23266500;2023-06-01T04:11:27;14.10;99.90
13211;DHT22;6670;51.53087800;7.23266500;2023-06-01T04:13:56;14.10;99.90
13211;DHT22;6670;51.53087800;7.23266500;2023-06-01T04:16:24;14.30;99.90
13211;DHT22;6670;51.53087800;7.23266500;2023-06-01T04:18:51;14.10;99.90
13211;DHT22;6670;51.53087800;7.23266500;2023-06-01T04:21:26;14.20;99.90
13211;DHT22;6670;51.53087800;7.23266500;2023-06-01T04:23:53;14.40;99.90
13211;DHT22;6670;51.53087800;7.23266500;2023-06-01T04:26:21;14.40;99.90
13211;DHT22;6670;51.53087800;7.23266500;2023-06-01T04:28:50;14.40;99.90
13211;DHT22;6670;51.53087800;7.23266500;2023-06-01T04:31:24;14.30;99.90
13211;DHT22;6670;51.53087800;7.23266500;2023-06-01T04:33:51;14.40;99.90
13211;DHT22;6670;51.53087800;7.23266500;2023-06-01T04:36:21;14.40;99.90
13211;DHT22;6670;51.53087800;7.23266500;2023-06-01T04:38:52;14.20;99.90
13211;DHT22;6670;51.53087800;7.23266500;2023-06-01T04:41:22;14.10;99.90
13211;DHT22;6670;51.53087800;7.23266500;2023-06-01T04:43:51;14.20;99.90
13211;DHT22;6670;51.53087800;7.23266500;2023-06-01T04:46:20;13.60;99.90
13211;DHT22;6670;51.53087800;7.23266500;2023-06-01T04:48:51;13.70;99.90
13211;DHT22;6670;51.53087800;7.23266500;2023-06-01T04:51:21;13.90;99.90
13211;DHT22;6670;51.53087800;7.23266500;2023-06-01T04:53:53;13.90;99.90
13211;DHT22;6670;51.53087800;7.23266500;2023-06-01T04:56:22;13.90;99.90
13211;DHT22;6670;51.53087800;7.23266500;2023-06-01T04:58:51;13.70;99.90
13211;DHT22;6670;51.53087800;7.23266500;2023-06-01T05:01:20;13.80;99.90
13211;DHT22;6670;51.53087800;7.23266500;2023-06-01T05:03:53;13.60;99.90
13211;DHT22;6670;51.53087800;7.23266500;2023-06-01T05:06:22;13.90;99.90
13211;DHT22;6670;51.53087800;7.23266500;2023-06-01T05:08:54;13.80;99.90
13211;DHT22;6670;51.53087800;7.23266500;2023-06-01T05:11:23;14.00;99.90
13211;DHT22;6670;51.53087800;7.23266500;2023-06-01T05:13:51;14.30;99.90
13211;DHT22;6670;51.53087800;7.23266500;2023-06-01T05:16:21;14.10;99.90
13211;DHT22;6670;51.53087800;7.23266500;2023-06-01T05:18:50;14.10;99.90
13211;DHT22;6670;51.53087800;7.23266500;2023-06-01T05:21:19;14.00;99.90
13211;DHT22;6670;51.53087800;7.23266500;2023-06-01T05:23:47;13.90;99.90
13211;DHT22;6670;51.53087800;7.23266500;2023-06-01T05:26:15;13.80;99.90
13211;DHT22;6670;51.53087800;7.23266500;2023-06-01T05:28:42;13.80;99.90
13211;DHT22;6670;51.53087800;7.23266500;2023-06-01T05:31:12;13.80;99.90
13211;DHT22;6670;51.53087800;7.23266500;2023-06-01T05:33:52;13.90;99.90
13211;DHT22;6670;51.53087800;7.23266500;2023-06-01T05:36:21;13.80;99.90
13211;DHT22;6670;51.53087800;7.23266500;2023-06-01T05:38:49;14.20;99.90
13211;DHT22;6670;51.53087800;7.23266500;2023-06-01T05:41:17;14.30;99.90
13211;DHT22;6670;51.53087800;7.23266500;2023-06-01T05:43:44;14.30;99.90
13211;DHT22;6670;51.53087800;7.23266500;2023-06-01T05:46:15;14.00;99.90
13211;DHT22;6670;51.53087800;7.23266500;2023-06-01T05:48:43;13.70;99.90
13211;DHT22;6670;51.53087800;7.23266500;2023-06-01T05:51:13;14.00;99.90
13211;DHT22;6670;51.53087800;7.23266500;2023-06-01T05:53:44;13.90;99.90
13211;DHT22;6670;51.53087800;7.23266500;2023-06-01T05:56:11;14.00;99.90
13211;DHT22;6670;51.53087800;7.23266500;2023-06-01T05:58:39;14.00;99.90
13211;DHT22;6670;51.53087800;7.23266500;2023-06-01T06:01:07;14.00;99.90
13211;DHT22;6670;51.53087800;7.23266500;2023-06-01T06:03:35;14.20;99.90
13211;DHT22;6670;51.53087800;7.23266500;2023-06-01T06:06:04;14.20;99.90
13211;DHT22;6670;51.53087800;7.23266500;2023-06-01T06:08:32;14.10;99.90
13211;DHT22;6670;51.53087800;7.23266500;2023-06-01T06:11:01;14.30;99.90
13211;DHT22;6670;51.53087800;7.23266500;2023-06-01T06:13:28;14.00;99.90
13211;DHT22;6670;51.53087800;7.23266500;2023-06-01T06:15:56;14.10;99.90
13211;DHT22;6670;51.53087800;7.23266500;2023-06-01T06:18:24;14.10;99.90
13211;DHT22;6670;51.53087800;7.23266500;2023-06-01T06:20:51;14.10;99.90
13211;DHT22;6670;51.53087800;7.23266500;2023-06-01T06:23:19;14.30;99.90
13211;DHT22;6670;51.53087800;7.23266500;2023-06-01T06:25:47;14.30;99.90
13211;DHT22;6670;51.53087800;7.23266500;2023-06-01T06:28:16;14.50;99.90
13211;DHT22;6670;51.53087800;7.23266500;2023-06-01T06:30:44;14.40;99.90
13211;DHT22;6670;51.53087800;7.23266500;2023-06-01T06:33:12;14.10;99.90
13211;DHT22;6670;51.53087800;7.23266500;2023-06-01T06:35:40;14.30;99.90
13211;DHT22;6670;51.53087800;7.23266500;2023-06-01T06:38:09;14.20;99.90
13211;DHT22;6670;51.53087800;7.23266500;2023-06-01T06:40:37;14.10;99.90
13211;DHT22;6670;51.53087800;7.23266500;2023-06-01T06:43:04;14.20;99.90
13211;DHT22;6670;51.53087800;7.23266500;2023-06-01T06:45:33;14.40;99.90
13211;DHT22;6670;51.53087800;7.23266500;2023-06-01T06:48:01;14.60;99.90
13211;DHT22;6670;51.53087800;7.23266500;2023-06-01T06:50:28;14.40;99.90
13211;DHT22;6670;51.53087800;7.23266500;2023-06-01T06:52:57;14.20;99.90
13211;DHT22;6670;51.53087800;7.23266500;2023-06-01T06:55:25;14.30;99.90
13211;DHT22;6670;51.53087800;7.23266500;2023-06-01T06:57:53;14.60;99.90
13211;DHT22;6670;51.53087800;7.23266500;2023-06-01T07:00:22;14.50;99.90
13211;DHT22;6670;51.53087800;7.23266500;2023-06-01T07:02:51;14.80;99.90
13211;DHT22;6670;51.53087800;7.23266500;2023-06-01T07:05:18;14.60;99.90
13211;DHT22;6670;51.53087800;7.23266500;2023-06-01T07:07:50;14.60;99.90
13211;DHT22;6670;51.53087800;7.23266500;2023-06-01T07:10:18;14.80;99.90
13211;DHT22;6670;51.53087800;7.23266500;2023-06-01T07:12:47;14.60;99.90
13211;DHT22;6670;51.53087800;7.23266500;2023-06-01T07:15:14;14.50;99.90
13211;DHT22;6670;51.53087800;7.23266500;2023-06-01T07:17:42;14.40;99.90
13211;DHT22;6670;51.53087800;7.23266500;2023-06-01T07:20:11;14.20;99.90
13211;DHT22;6670;51.53087800;7.23266500;2023-06-01T07:22:39;14.40;99.90
13211;DHT22;6670;51.53087800;7.23266500;2023-06-01T07:25:08;14.50;99.90
13211;DHT22;6670;51.53087800;7.23266500;2023-06-01T07:27:36;14.70;99.90
13211;DHT22;6670;51.53087800;7.23266500;2023-06-01T07:30:04;14.60;99.90
13211;DHT22;6670;51.53087800;7.23266500;2023-06-01T07:32:33;14.40;99.90
13211;DHT22;6670;51.53087800;7.23266500;2023-06-01T07:35:01;14.80;99.90
13211;DHT22;6670;51.53087800;7.23266500;2023-06-01T07:37:32;14.90;99.90
13211;DHT22;6670;51.53087800;7.23266500;2023-06-01T07:40:00;14.90;99.90
13211;DHT22;6670;51.53087800;7.23266500;2023-06-01T07:42:27;15.00;99.90
13211;DHT22;6670;51.53087800;7.23266500;2023-06-01T07:44:55;14.80;99.90
13211;DHT22;6670;51.53087800;7.23266500;2023-06-01T07:47:23;14.80;99.90
13211;DHT22;6670;51.53087800;7.23266500;2023-06-01T07:49:51;15.00;99.90
13211;DHT22;6670;51.53087800;7.23266500;2023-06-01T07:52:19;15.10;99.90
13211;DHT22;6670;51.53087800;7.23266500;2023-06-01T07:54:48;15.20;99.90
13211;DHT22;6670;51.53087800;7.23266500;2023-06-01T07:57:15;15.00;99.90
13211;DHT22;6670;51.53087800;7.23266500;2023-06-01T07:59:43;15.30;99.90
13211;DHT22;6670;51.53087800;7.23266500;2023-06-01T08:02:11;15.40;99.90
13211;DHT22;6670;51.53087800;7.23266500;2023-06-01T08:04:39;15.60;99.90
13211;DHT22;6670;51.53087800;7.23266500;2023-06-01T08:07:06;15.70;99.90
13211;DHT22;6670;51.53087800;7.23266500;2023-06-01T08:09:35;15.70;99.90
13211;DHT22;6670;51.53087800;7.23266500;2023-06-01T08:12:06;15.90;99.90
13211;DHT22;6670;51.53087800;7.23266500;2023-06-01T08:14:34;15.60;99.90
13211;DHT22;6670;51.53087800;7.23266500;2023-06-01T08:17:02;15.70;99.90
13211;DHT22;6670;51.53087800;7.23266500;2023-06-01T08:19:29;15.90;99.90
13211;DHT22;6670;51.53087800;7.23266500;2023-06-01T08:21:57;15.90;99.90
13211;DHT22;6670;51.53087800;7.23266500;2023-06-01T08:24:25;15.80;99.90
13211;DHT22;6670;51.53087800;7.23266500;2023-06-01T08:26:54;15.70;99.90
13211;DHT22;6670;51.53087800;7.23266500;2023-06-01T08:29:23;15.90;99.90
13211;DHT22;6670;51.53087800;7.23266500;2023-06-01T08:31:51;16.00;99.90
13211;DHT22;6670;51.53087800;7.23266500;2023-06-01T08:34:18;15.80;99.90
13211;DHT22;6670;51.53087800;7.23266500;2023-06-01T08:36:46;16.00;99.90
13211;DHT22;6670;51.53087800;7.23266500;2023-06-01T08:39:21;15.80;99.90
13211;DHT22;6670;51.53087800;7.23266500;2023-06-01T08:41:58;16.10;99.90
13211;DHT22;6670;51.53087800;7.23266500;2023-06-01T08:44:34;15.80;99.90
13211;DHT22;6670;51.53087800;7.23266500;2023-06-01T08:47:37;16.30;99.90
13211;DHT22;6670;51.53087800;7.23266500;2023-06-01T08:50:06;16.60;99.90
13211;DHT22;6670;51.53087800;7.23266500;2023-06-01T08:52:36;17.00;99.90
13211;DHT22;6670;51.53087800;7.23266500;2023-06-01T08:55:05;17.10;99.90
13211;DHT22;6670;51.53087800;7.23266500;2023-06-01T08:57:33;17.00;99.90
13211;DHT22;6670;51.53087800;7.23266500;2023-06-01T09:00:03;16.90;99.90
13211;DHT22;6670;51.53087800;7.23266500;2023-06-01T09:02:32;17.10;99.90
13211;DHT22;6670;51.53087800;7.23266500;2023-06-01T09:04:59;17.50;99.90
13211;DHT22;6670;51.53087800;7.23266500;2023-06-01T09:07:26;17.00;99.90
13211;DHT22;6670;51.53087800;7.23266500;2023-06-01T09:09:55;16.60;99.90
13211;DHT22;6670;51.53087800;7.23266500;2023-06-01T09:12:24;16.70;99.90
13211;DHT22;6670;51.53087800;7.23266500;2023-06-01T09:15:18;16.50;99.90
13211;DHT22;6670;51.53087800;7.23266500;2023-06-01T09:17:47;16.80;99.90
13211;DHT22;6670;51.53087800;7.23266500;2023-06-01T09:20:25;16.40;99.90
13211;DHT22;6670;51.53087800;7.23266500;2023-06-01T09:22:54;16.40;99.90
13211;DHT22;6670;51.53087800;7.23266500;2023-06-01T09:25:38;16.60;99.90
13211;DHT22;6670;51.53087800;7.23266500;2023-06-01T09:28:55;16.70;99.90
13211;DHT22;6670;51.53087800;7.23266500;2023-06-01T09:31:39;16.60;99.90
13211;DHT22;6670;51.53087800;7.23266500;2023-06-01T09:34:19;17.30;99.90
13211;DHT22;6670;51.53087800;7.23266500;2023-06-01T09:36:53;17.40;99.90
13211;DHT22;6670;51.53087800;7.23266500;2023-06-01T09:39:22;16.80;99.90
13211;DHT22;6670;51.53087800;7.23266500;2023-06-01T09:41:51;17.10;99.90
13211;DHT22;6670;51.53087800;7.23266500;2023-06-01T09:44:27;17.40;99.90
13211;DHT22;6670;51.53087800;7.23266500;2023-06-01T09:46:57;17.50;99.90
13211;DHT22;6670;51.53087800;7.23266500;2023-06-01T09:49:25;17.60;99.90
13211;DHT22;6670;51.53087800;7.23266500;2023-06-01T09:52:07;17.80;99.90
13211;DHT22;6670;51.53087800;7.23266500;2023-06-01T09:54:37;17.80;99.90
13211;DHT22;6670;51.53087800;7.23266500;2023-06-01T09:57:06;17.90;99.90
13211;DHT22;6670;51.53087800;7.23266500;2023-06-01T09:59:39;17.90;99.90
13211;DHT22;6670;51.53087800;7.23266500;2023-06-01T10:02:12;17.90;99.90
13211;DHT22;6670;51.53087800;7.23266500;2023-06-01T10:04:41;18.10;99.90
13211;DHT22;6670;51.53087800;7.23266500;2023-06-01T10:07:09;17.80;99.90
13211;DHT22;6670;51.53087800;7.23266500;2023-06-01T10:09:41;17.90;99.90
13211;DHT22;6670;51.53087800;7.23266500;2023-06-01T10:12:09;17.80;99.90
13211;DHT22;6670;51.53087800;7.23266500;2023-06-01T10:14:37;17.80;99.90
13211;DHT22;6670;51.53087800;7.23266500;2023-06-01T10:17:33;18.00;99.90
13211;DHT22;6670;51.53087800;7.23266500;2023-06-01T10:20:16;18.30;99.90
13211;DHT22;6670;51.53087800;7.23266500;2023-06-01T10:22:48;18.50;99.90
13211;DHT22;6670;51.53087800;7.23266500;2023-06-01T10:25:18;18.50;99.90
13211;DHT22;6670;51.53087800;7.23266500;2023-06-01T10:27:54;18.40;99.90
13211;DHT22;6670;51.53087800;7.23266500;2023-06-01T10:30:36;18.40;99.90
13211;DHT22;6670;51.53087800;7.23266500;2023-06-01T10:33:06;18.60;99.90
13211;DHT22;6670;51.53087800;7.23266500;2023-06-01T10:36:01;18.60;99.90
13211;DHT22;6670;51.53087800;7.23266500;2023-06-01T10:38:31;18.80;99.90
13211;DHT22;6670;51.53087800;7.23266500;2023-06-01T10:41:29;18.60;99.90
13211;DHT22;6670;51.53087800;7.23266500;2023-06-01T10:44:44;18.50;99.90
13211;DHT22;6670;51.53087800;7.23266500;2023-06-01T10:50:16;18.50;99.90
13211;DHT22;6670;51.53087800;7.23266500;2023-06-01T10:52:44;18.90;99.90
13211;DHT22;6670;51.53087800;7.23266500;2023-06-01T10:55:25;18.60;99.90
13211;DHT22;6670;51.53087800;7.23266500;2023-06-01T10:58:20;18.80;99.90
13211;DHT22;6670;51.53087800;7.23266500;2023-06-01T11:00:50;19.40;99.90
13211;DHT22;6670;51.53087800;7.23266500;2023-06-01T11:03:43;19.80;99.90
13211;DHT22;6670;51.53087800;7.23266500;2023-06-01T11:06:28;20.00;99.20
13211;DHT22;6670;51.53087800;7.23266500;2023-06-01T11:08:59;19.80;99.70
13211;DHT22;6670;51.53087800;7.23266500;2023-06-01T11:11:58;19.20;99.90
13211;DHT22;6670;51.53087800;7.23266500;2023-06-01T11:14:27;19.20;99.90
13211;DHT22;6670;51.53087800;7.23266500;2023-06-01T11:17:24;19.70;99.90
13211;DHT22;6670;51.53087800;7.23266500;2023-06-01T11:19:45;19.80;99.90
13211;DHT22;6670;51.53087800;7.23266500;2023-06-01T11:22:14;20.00;99.90
13211;DHT22;6670;51.53087800;7.23266500;2023-06-01T11:24:45;19.90;99.50
13211;DHT22;6670;51.53087800;7.23266500;2023-06-01T11:27:14;19.80;99.90
13211;DHT22;6670;51.53087800;7.23266500;2023-06-01T11:29:47;19.90;99.90
13211;DHT22;6670;51.53087800;7.23266500;2023-06-01T11:32:22;19.70;99.90
13211;DHT22;6670;51.53087800;7.23266500;2023-06-01T11:34:49;19.70;99.90
13211;DHT22;6670;51.53087800;7.23266500;2023-06-01T11:37:19;20.00;99.90
13211;DHT22;6670;51.53087800;7.23266500;2023-06-01T11:39:47;20.00;99.80
13211;DHT22;6670;51.53087800;7.23266500;2023-06-01T11:42:17;19.80;99.90
13211;DHT22;6670;51.53087800;7.23266500;2023-06-01T11:44:46;19.70;99.90
13211;DHT22;6670;51.53087800;7.23266500;2023-06-01T11:47:13;19.60;99.90
13211;DHT22;6670;51.53087800;7.23266500;2023-06-01T11:49:42;19.30;99.90
13211;DHT22;6670;51.53087800;7.23266500;2023-06-01T11:52:13;19.60;99.90
13211;DHT22;6670;51.53087800;7.23266500;2023-06-01T11:54:42;19.40;99.90
13211;DHT22;6670;51.53087800;7.23266500;2023-06-01T11:57:09;19.70;99.90
13211;DHT22;6670;51.53087800;7.23266500;2023-06-01T11:59:37;19.50;99.90
13211;DHT22;6670;51.53087800;7.23266500;2023-06-01T12:02:17;20.00;99.90
13211;DHT22;6670;51.53087800;7.23266500;2023-06-01T12:04:54;20.30;99.90
13211;DHT22;6670;51.53087800;7.23266500;2023-06-01T12:07:23;20.40;98.50
13211;DHT22;6670;51.53087800;7.23266500;2023-06-01T12:09:52;19.80;99.30
13211;DHT22;6670;51.53087800;7.23266500;2023-06-01T12:12:22;19.70;99.90
13211;DHT22;6670;51.53087800;7.23266500;2023-06-01T12:14:54;20.00;99.90
13211;DHT22;6670;51.53087800;7.23266500;2023-06-01T12:17:21;20.10;99.90
13211;DHT22;6670;51.53087800;7.23266500;2023-06-01T12:19:50;20.60;99.90
13211;DHT22;6670;51.53087800;7.23266500;2023-06-01T12:22:17;20.30;99.70
13211;DHT22;6670;51.53087800;7.23266500;2023-06-01T12:24:45;20.20;99.90
